sensor_id;sensor_type;location;lat;lon;timestamp;P1;durP1;ratioP1;P2;durP2;ratioP2
60588;SDS011;46421;48.610;9.334;2022-08-18T00:00:37;0.25;;;0.25;;
60588;SDS011;46421;48.610;9.334;2022-08-18T00:03:03;0.20;;;0.20;;
60588;SDS011;46421;48.610;9.334;2022-08-18T00:05:31;0.30;;;0.30;;
60588;SDS011;46421;48.610;9.334;2022-08-18T00:07:57;0.20;;;0.20;;
60588;SDS011;46421;48.610;9.334;2022-08-18T00:10:22;0.10;;;0.10;;
60588;SDS011;46421;48.610;9.334;2022-08-18T00:12:48;0.25;;;0.25;;
60588;SDS011;46421;48.610;9.334;2022-08-18T00:15:14;0.30;;;0.30;;
60588;SDS011;46421;48.610;9.334;2022-08-18T00:17:40;0.20;;;0.20;;
60588;SDS011;46421;48.610;9.334;2022-08-18T00:20:07;0.30;;;0.30;;
60588;SDS011;46421;48.610;9.334;2022-08-18T00:22:35;0.30;;;0.30;;
60588;SDS011;46421;48.610;9.334;2022-08-18T00:25:01;0.28;;;0.28;;
60588;SDS011;46421;48.610;9.334;2022-08-18T00:27:29;0.30;;;0.30;;
60588;SDS011;46421;48.610;9.334;2022-08-18T00:29:59;0.20;;;0.20;;
60588;SDS011;46421;48.610;9.334;2022-08-18T00:32:30;0.28;;;0.28;;
60588;SDS011;46421;48.610;9.334;2022-08-18T00:35:12;0.20;;;0.20;;
60588;SDS011;46421;48.610;9.334;2022-08-18T00:37:40;0.30;;;0.30;;
60588;SDS011;46421;48.610;9.334;2022-08-18T00:40:08;0.30;;;0.30;;
60588;SDS011;46421;48.610;9.334;2022-08-18T00:42:39;0.30;;;0.30;;
60588;SDS011;46421;48.610;9.334;2022-08-18T00:45:08;0.20;;;0.20;;
60588;SDS011;46421;48.610;9.334;2022-08-18T00:47:38;0.28;;;0.28;;
60588;SDS011;46421;48.610;9.334;2022-08-18T00:50:03;0.20;;;0.20;;
60588;SDS011;46421;48.610;9.334;2022-08-18T00:52:30;0.28;;;0.28;;
60588;SDS011;46421;48.610;9.334;2022-08-18T00:54:55;0.20;;;0.20;;
60588;SDS011;46421;48.610;9.334;2022-08-18T00:57:22;0.25;;;0.25;;
60588;SDS011;46421;48.610;9.334;2022-08-18T00:59:56;0.20;;;0.20;;
60588;SDS011;46421;48.610;9.334;2022-08-18T01:02:27;0.20;;;0.20;;
60588;SDS011;46421;48.610;9.334;2022-08-18T01:04:59;0.20;;;0.20;;
60588;SDS011;46421;48.610;9.334;2022-08-18T01:07:38;0.20;;;0.20;;
60588;SDS011;46421;48.610;9.334;2022-08-18T01:10:06;0.30;;;0.30;;
60588;SDS011;46421;48.610;9.334;2022-08-18T01:12:32;0.25;;;0.25;;
60588;SDS011;46421;48.610;9.334;2022-08-18T01:14:57;0.38;;;0.38;;
60588;SDS011;46421;48.610;9.334;2022-08-18T01:17:23;0.30;;;0.30;;
60588;SDS011;46421;48.610;9.334;2022-08-18T01:19:49;0.38;;;0.38;;
60588;SDS011;46421;48.610;9.334;2022-08-18T01:22:22;0.20;;;0.20;;
60588;SDS011;46421;48.610;9.334;2022-08-18T01:24:54;0.30;;;0.30;;
60588;SDS011;46421;48.610;9.334;2022-08-18T01:27:22;0.30;;;0.30;;
60588;SDS011;46421;48.610;9.334;2022-08-18T01:29:48;0.20;;;0.20;;
60588;SDS011;46421;48.610;9.334;2022-08-18T01:32:19;0.20;;;0.20;;
60588;SDS011;46421;48.610;9.334;2022-08-18T01:34:46;0.20;;;0.20;;
60588;SDS011;46421;48.610;9.334;2022-08-18T01:37:17;0.30;;;0.30;;
60588;SDS011;46421;48.610;9.334;2022-08-18T01:39:44;0.20;;;0.20;;
60588;SDS011;46421;48.610;9.334;2022-08-18T01:42:11;0.20;;;0.20;;
60588;SDS011;46421;48.610;9.334;2022-08-18T01:44:38;0.20;;;0.20;;
60588;SDS011;46421;48.610;9.334;2022-08-18T01:47:04;0.20;;;0.20;;
60588;SDS011;46421;48.610;9.334;2022-08-18T01:49:29;0.20;;;0.20;;
60588;SDS011;46421;48.610;9.334;2022-08-18T01:51:54;0.30;;;0.30;;
60588;SDS011;46421;48.610;9.334;2022-08-18T01:54:20;0.22;;;0.22;;
60588;SDS011;46421;48.610;9.334;2022-08-18T01:56:45;0.20;;;0.20;;
60588;SDS011;46421;48.610;9.334;2022-08-18T01:59:11;0.30;;;0.30;;
60588;SDS011;46421;48.610;9.334;2022-08-18T02:01:37;0.30;;;0.30;;
60588;SDS011;46421;48.610;9.334;2022-08-18T02:04:03;0.30;;;0.30;;
60588;SDS011;46421;48.610;9.334;2022-08-18T02:06:29;0.20;;;0.20;;
60588;SDS011;46421;48.610;9.334;2022-08-18T02:08:55;0.20;;;0.20;;
60588;SDS011;46421;48.610;9.334;2022-08-18T02:11:20;0.20;;;0.20;;
60588;SDS011;46421;48.610;9.334;2022-08-18T02:13:45;0.20;;;0.20;;
60588;SDS011;46421;48.610;9.334;2022-08-18T02:16:10;0.20;;;0.20;;
60588;SDS011;46421;48.610;9.334;2022-08-18T02:18:36;0.28;;;0.28;;
60588;SDS011;46421;48.610;9.334;2022-08-18T02:21:06;0.40;;;0.40;;
60588;SDS011;46421;48.610;9.334;2022-08-18T02:23:37;0.30;;;0.30;;
60588;SDS011;46421;48.610;9.334;2022-08-18T02:26:04;0.20;;;0.20;;
60588;SDS011;46421;48.610;9.334;2022-08-18T02:28:32;0.30;;;0.30;;
60588;SDS011;46421;48.610;9.334;2022-08-18T02:31:02;0.20;;;0.20;;
60588;SDS011;46421;48.610;9.334;2022-08-18T02:33:31;0.20;;;0.20;;
60588;SDS011;46421;48.610;9.334;2022-08-18T02:35:56;0.20;;;0.20;;
60588;SDS011;46421;48.610;9.334;2022-08-18T02:38:21;0.20;;;0.20;;
60588;SDS011;46421;48.610;9.334;2022-08-18T02:40:52;0.20;;;0.20;;
60588;SDS011;46421;48.610;9.334;2022-08-18T02:43:18;0.25;;;0.25;;
60588;SDS011;46421;48.610;9.334;2022-08-18T02:45:44;0.20;;;0.20;;
60588;SDS011;46421;48.610;9.334;2022-08-18T02:48:09;0.20;;;0.20;;
60588;SDS011;46421;48.610;9.334;2022-08-18T02:50:34;0.20;;;0.20;;
60588;SDS011;46421;48.610;9.334;2022-08-18T02:53:00;0.20;;;0.20;;
60588;SDS011;46421;48.610;9.334;2022-08-18T02:55:26;0.28;;;0.28;;
60588;SDS011;46421;48.610;9.334;2022-08-18T02:57:51;0.25;;;0.25;;
60588;SDS011;46421;48.610;9.334;2022-08-18T03:00:17;0.28;;;0.28;;
60588;SDS011;46421;48.610;9.334;2022-08-18T03:02:49;0.20;;;0.20;;
60588;SDS011;46421;48.610;9.334;2022-08-18T03:05:16;0.20;;;0.20;;
60588;SDS011;46421;48.610;9.334;2022-08-18T03:07:43;0.20;;;0.20;;
60588;SDS011;46421;48.610;9.334;2022-08-18T03:10:09;0.20;;;0.20;;
60588;SDS011;46421;48.610;9.334;2022-08-18T03:12:35;0.20;;;0.20;;
60588;SDS011;46421;48.610;9.334;2022-08-18T03:15:00;0.30;;;0.30;;
60588;SDS011;46421;48.610;9.334;2022-08-18T03:17:25;0.28;;;0.28;;
60588;SDS011;46421;48.610;9.334;2022-08-18T03:19:51;0.30;;;0.30;;
60588;SDS011;46421;48.610;9.334;2022-08-18T03:22:16;0.27;;;0.27;;
60588;SDS011;46421;48.610;9.334;2022-08-18T03:24:41;0.30;;;0.30;;
60588;SDS011;46421;48.610;9.334;2022-08-18T03:27:06;0.20;;;0.20;;
60588;SDS011;46421;48.610;9.334;2022-08-18T03:29:32;0.20;;;0.20;;
60588;SDS011;46421;48.610;9.334;2022-08-18T03:32:02;0.22;;;0.22;;
60588;SDS011;46421;48.610;9.334;2022-08-18T03:34:29;0.25;;;0.25;;
60588;SDS011;46421;48.610;9.334;2022-08-18T03:36:54;0.20;;;0.20;;
60588;SDS011;46421;48.610;9.334;2022-08-18T03:39:19;0.20;;;0.20;;
60588;SDS011;46421;48.610;9.334;2022-08-18T03:41:45;0.30;;;0.30;;
60588;SDS011;46421;48.610;9.334;2022-08-18T03:44:12;0.20;;;0.20;;
60588;SDS011;46421;48.610;9.334;2022-08-18T03:46:41;0.20;;;0.20;;
60588;SDS011;46421;48.610;9.334;2022-08-18T03:49:08;0.32;;;0.32;;
60588;SDS011;46421;48.610;9.334;2022-08-18T03:51:33;0.20;;;0.20;;
60588;SDS011;46421;48.610;9.334;2022-08-18T03:54:00;0.20;;;0.20;;
60588;SDS011;46421;48.610;9.334;2022-08-18T03:56:29;0.30;;;0.30;;
60588;SDS011;46421;48.610;9.334;2022-08-18T03:58:58;0.20;;;0.20;;
60588;SDS011;46421;48.610;9.334;2022-08-18T04:01:30;0.30;;;0.30;;
60588;SDS011;46421;48.610;9.334;2022-08-18T04:03:59;0.28;;;0.28;;
60588;SDS011;46421;48.610;9.334;2022-08-18T04:06:33;0.25;;;0.25;;
60588;SDS011;46421;48.610;9.334;2022-08-18T04:09:02;0.20;;;0.20;;
60588;SDS011;46421;48.610;9.334;2022-08-18T04:11:33;0.30;;;0.30;;
60588;SDS011;46421;48.610;9.334;2022-08-18T04:13:59;0.25;;;0.25;;
60588;SDS011;46421;48.610;9.334;2022-08-18T04:16:25;0.30;;;0.30;;
60588;SDS011;46421;48.610;9.334;2022-08-18T04:18:51;0.20;;;0.20;;
60588;SDS011;46421;48.610;9.334;2022-08-18T04:21:17;0.30;;;0.30;;
60588;SDS011;46421;48.610;9.334;2022-08-18T04:23:42;0.30;;;0.30;;
60588;SDS011;46421;48.610;9.334;2022-08-18T04:26:08;0.20;;;0.20;;
60588;SDS011;46421;48.610;9.334;2022-08-18T04:28:35;0.30;;;0.30;;
60588;SDS011;46421;48.610;9.334;2022-08-18T04:31:08;0.20;;;0.20;;
60588;SDS011;46421;48.610;9.334;2022-08-18T04:33:35;0.30;;;0.30;;
60588;SDS011;46421;48.610;9.334;2022-08-18T04:36:05;0.30;;;0.30;;
60588;SDS011;46421;48.610;9.334;2022-08-18T04:38:35;0.32;;;0.32;;
60588;SDS011;46421;48.610;9.334;2022-08-18T04:41:01;0.30;;;0.30;;
60588;SDS011;46421;48.610;9.334;2022-08-18T04:43:26;0.22;;;0.22;;
60588;SDS011;46421;48.610;9.334;2022-08-18T04:45:51;0.30;;;0.30;;
60588;SDS011;46421;48.610;9.334;2022-08-18T04:48:17;0.20;;;0.20;;
60588;SDS011;46421;48.610;9.334;2022-08-18T04:50:42;0.20;;;0.20;;
60588;SDS011;46421;48.610;9.334;2022-08-18T04:53:07;0.28;;;0.28;;
60588;SDS011;46421;48.610;9.334;2022-08-18T04:55:33;0.20;;;0.20;;
60588;SDS011;46421;48.610;9.334;2022-08-18T04:57:58;0.22;;;0.22;;
60588;SDS011;46421;48.610;9.334;2022-08-18T05:00:24;0.30;;;0.30;;
60588;SDS011;46421;48.610;9.334;2022-08-18T05:02:50;0.30;;;0.30;;
60588;SDS011;46421;48.610;9.334;2022-08-18T05:05:15;0.27;;;0.27;;
60588;SDS011;46421;48.610;9.334;2022-08-18T05:07:44;0.30;;;0.30;;
60588;SDS011;46421;48.610;9.334;2022-08-18T05:10:10;0.30;;;0.30;;
60588;SDS011;46421;48.610;9.334;2022-08-18T05:12:35;0.30;;;0.30;;
60588;SDS011;46421;48.610;9.334;2022-08-18T05:15:01;0.22;;;0.22;;
60588;SDS011;46421;48.610;9.334;2022-08-18T05:17:26;0.30;;;0.30;;
60588;SDS011;46421;48.610;9.334;2022-08-18T05:19:52;0.30;;;0.30;;
60588;SDS011;46421;48.610;9.334;2022-08-18T05:22:17;0.25;;;0.25;;
60588;SDS011;46421;48.610;9.334;2022-08-18T05:24:42;0.30;;;0.30;;
60588;SDS011;46421;48.610;9.334;2022-08-18T05:27:08;0.30;;;0.30;;
60588;SDS011;46421;48.610;9.334;2022-08-18T05:29:33;0.30;;;0.30;;
60588;SDS011;46421;48.610;9.334;2022-08-18T05:31:59;0.30;;;0.30;;
60588;SDS011;46421;48.610;9.334;2022-08-18T05:34:25;0.20;;;0.20;;
60588;SDS011;46421;48.610;9.334;2022-08-18T05:37:01;0.30;;;0.30;;
60588;SDS011;46421;48.610;9.334;2022-08-18T05:39:37;0.30;;;0.30;;
60588;SDS011;46421;48.610;9.334;2022-08-18T05:42:17;0.30;;;0.30;;
60588;SDS011;46421;48.610;9.334;2022-08-18T05:44:46;0.30;;;0.30;;
60588;SDS011;46421;48.610;9.334;2022-08-18T05:47:24;0.30;;;0.30;;
60588;SDS011;46421;48.610;9.334;2022-08-18T05:49:52;0.30;;;0.30;;
60588;SDS011;46421;48.610;9.334;2022-08-18T05:52:30;0.30;;;0.30;;
60588;SDS011;46421;48.610;9.334;2022-08-18T05:55:11;0.30;;;0.30;;
60588;SDS011;46421;48.610;9.334;2022-08-18T05:57:54;0.30;;;0.30;;
60588;SDS011;46421;48.610;9.334;2022-08-18T06:00:23;0.30;;;0.30;;
60588;SDS011;46421;48.610;9.334;2022-08-18T06:03:07;0.30;;;0.30;;
60588;SDS011;46421;48.610;9.334;2022-08-18T06:05:43;0.20;;;0.20;;
60588;SDS011;46421;48.610;9.334;2022-08-18T06:08:13;0.30;;;0.30;;
60588;SDS011;46421;48.610;9.334;2022-08-18T06:10:43;0.30;;;0.30;;
60588;SDS011;46421;48.610;9.334;2022-08-18T06:13:12;0.20;;;0.20;;
60588;SDS011;46421;48.610;9.334;2022-08-18T06:18:21;0.30;;;0.30;;
60588;SDS011;46421;48.610;9.334;2022-08-18T06:24:30;0.30;;;0.30;;
60588;SDS011;46421;48.610;9.334;2022-08-18T06:26:57;0.20;;;0.20;;
60588;SDS011;46421;48.610;9.334;2022-08-18T06:32:13;0.20;;;0.20;;
60588;SDS011;46421;48.610;9.334;2022-08-18T06:37:40;0.20;;;0.20;;
60588;SDS011;46421;48.610;9.334;2022-08-18T06:40:15;0.28;;;0.28;;
60588;SDS011;46421;48.610;9.334;2022-08-18T06:42:40;0.20;;;0.20;;
60588;SDS011;46421;48.610;9.334;2022-08-18T06:45:07;0.20;;;0.20;;
60588;SDS011;46421;48.610;9.334;2022-08-18T06:47:48;0.20;;;0.20;;
60588;SDS011;46421;48.610;9.334;2022-08-18T06:50:26;0.20;;;0.20;;
60588;SDS011;46421;48.610;9.334;2022-08-18T06:53:00;0.15;;;0.15;;
60588;SDS011;46421;48.610;9.334;2022-08-18T06:55:36;0.20;;;0.20;;
60588;SDS011;46421;48.610;9.334;2022-08-18T07:00:37;0.20;;;0.20;;
60588;SDS011;46421;48.610;9.334;2022-08-18T07:03:12;0.20;;;0.20;;
60588;SDS011;46421;48.610;9.334;2022-08-18T07:08:50;0.20;;;0.20;;
60588;SDS011;46421;48.610;9.334;2022-08-18T07:11:28;0.20;;;0.20;;
60588;SDS011;46421;48.610;9.334;2022-08-18T07:13:56;0.20;;;0.20;;
60588;SDS011;46421;48.610;9.334;2022-08-18T07:16:36;0.17;;;0.17;;
60588;SDS011;46421;48.610;9.334;2022-08-18T07:19:09;0.17;;;0.17;;
60588;SDS011;46421;48.610;9.334;2022-08-18T07:21:36;0.30;;;0.30;;
60588;SDS011;46421;48.610;9.334;2022-08-18T07:24:05;0.20;;;0.20;;
60588;SDS011;46421;48.610;9.334;2022-08-18T07:29:30;0.20;;;0.20;;
60588;SDS011;46421;48.610;9.334;2022-08-18T07:32:00;0.20;;;0.20;;
60588;SDS011;46421;48.610;9.334;2022-08-18T07:34:37;0.30;;;0.30;;
60588;SDS011;46421;48.610;9.334;2022-08-18T07:37:12;0.20;;;0.20;;
60588;SDS011;46421;48.610;9.334;2022-08-18T07:39:44;0.20;;;0.20;;
60588;SDS011;46421;48.610;9.334;2022-08-18T07:45:18;0.10;;;0.10;;
60588;SDS011;46421;48.610;9.334;2022-08-18T07:47:56;0.20;;;0.20;;
60588;SDS011;46421;48.610;9.334;2022-08-18T07:50:28;0.20;;;0.20;;
60588;SDS011;46421;48.610;9.334;2022-08-18T07:53:06;0.10;;;0.10;;
60588;SDS011;46421;48.610;9.334;2022-08-18T07:55:39;0.22;;;0.22;;
60588;SDS011;46421;48.610;9.334;2022-08-18T08:01:06;0.20;;;0.20;;
60588;SDS011;46421;48.610;9.334;2022-08-18T08:04:00;0.28;;;0.28;;
60588;SDS011;46421;48.610;9.334;2022-08-18T08:06:29;0.30;;;0.30;;
60588;SDS011;46421;48.610;9.334;2022-08-18T08:16:48;0.30;;;0.30;;
60588;SDS011;46421;48.610;9.334;2022-08-18T08:19:23;0.22;;;0.22;;
60588;SDS011;46421;48.610;9.334;2022-08-18T08:21:59;0.20;;;0.20;;
60588;SDS011;46421;48.610;9.334;2022-08-18T08:24:32;0.22;;;0.22;;
60588;SDS011;46421;48.610;9.334;2022-08-18T08:27:34;0.30;;;0.30;;
60588;SDS011;46421;48.610;9.334;2022-08-18T08:32:31;0.20;;;0.20;;
60588;SDS011;46421;48.610;9.334;2022-08-18T08:35:12;0.30;;;0.30;;
60588;SDS011;46421;48.610;9.334;2022-08-18T08:37:46;0.30;;;0.30;;
60588;SDS011;46421;48.610;9.334;2022-08-18T08:40:17;0.30;;;0.30;;
60588;SDS011;46421;48.610;9.334;2022-08-18T08:43:33;0.20;;;0.20;;
60588;SDS011;46421;48.610;9.334;2022-08-18T08:45:41;0.22;;;0.22;;
60588;SDS011;46421;48.610;9.334;2022-08-18T08:48:13;0.20;;;0.20;;
60588;SDS011;46421;48.610;9.334;2022-08-18T08:50:45;0.10;;;0.10;;
60588;SDS011;46421;48.610;9.334;2022-08-18T08:56:12;0.30;;;0.30;;
60588;SDS011;46421;48.610;9.334;2022-08-18T08:58:53;0.30;;;0.30;;
60588;SDS011;46421;48.610;9.334;2022-08-18T09:01:25;0.20;;;0.20;;
60588;SDS011;46421;48.610;9.334;2022-08-18T09:04:17;0.10;;;0.10;;
60588;SDS011;46421;48.610;9.334;2022-08-18T09:12:16;0.10;;;0.10;;
60588;SDS011;46421;48.610;9.334;2022-08-18T09:15:15;0.15;;;0.15;;
60588;SDS011;46421;48.610;9.334;2022-08-18T09:17:53;0.20;;;0.20;;
60588;SDS011;46421;48.610;9.334;2022-08-18T09:20:33;0.10;;;0.10;;
60588;SDS011;46421;48.610;9.334;2022-08-18T09:23:22;0.20;;;0.20;;
60588;SDS011;46421;48.610;9.334;2022-08-18T09:25:52;0.10;;;0.10;;
60588;SDS011;46421;48.610;9.334;2022-08-18T09:38:54;0.03;;;0.03;;
60588;SDS011;46421;48.610;9.334;2022-08-18T09:41:20;0.10;;;0.10;;
60588;SDS011;46421;48.610;9.334;2022-08-18T09:46:48;0.13;;;0.13;;
60588;SDS011;46421;48.610;9.334;2022-08-18T09:51:46;0.30;;;0.30;;
60588;SDS011;46421;48.610;9.334;2022-08-18T09:54:29;0.30;;;0.30;;
60588;SDS011;46421;48.610;9.334;2022-08-18T10:01:58;0.30;;;0.30;;
60588;SDS011;46421;48.610;9.334;2022-08-18T10:04:43;0.20;;;0.20;;
60588;SDS011;46421;48.610;9.334;2022-08-18T10:07:29;0.20;;;0.20;;
60588;SDS011;46421;48.610;9.334;2022-08-18T10:10:03;0.40;;;0.40;;
60588;SDS011;46421;48.610;9.334;2022-08-18T10:21:21;0.30;;;0.30;;
60588;SDS011;46421;48.610;9.334;2022-08-18T10:29:06;0.30;;;0.30;;
60588;SDS011;46421;48.610;9.334;2022-08-18T10:37:52;0.10;;;0.10;;
60588;SDS011;46421;48.610;9.334;2022-08-18T10:45:26;0.30;;;0.30;;
60588;SDS011;46421;48.610;9.334;2022-08-18T10:50:29;0.10;;;0.10;;
60588;SDS011;46421;48.610;9.334;2022-08-18T10:55:49;0.10;;;0.10;;
60588;SDS011;46421;48.610;9.334;2022-08-18T11:04:02;0.20;;;0.20;;
60588;SDS011;46421;48.610;9.334;2022-08-18T11:06:28;0.30;;;0.30;;
60588;SDS011;46421;48.610;9.334;2022-08-18T11:09:02;0.20;;;0.20;;
60588;SDS011;46421;48.610;9.334;2022-08-18T11:11:32;0.30;;;0.30;;
60588;SDS011;46421;48.610;9.334;2022-08-18T11:16:53;0.30;;;0.30;;
60588;SDS011;46421;48.610;9.334;2022-08-18T11:19:27;0.20;;;0.20;;
60588;SDS011;46421;48.610;9.334;2022-08-18T11:21:59;0.30;;;0.30;;
60588;SDS011;46421;48.610;9.334;2022-08-18T11:24:28;0.20;;;0.20;;
60588;SDS011;46421;48.610;9.334;2022-08-18T11:26:56;0.20;;;0.20;;
60588;SDS011;46421;48.610;9.334;2022-08-18T11:31:55;0.10;;;0.10;;
60588;SDS011;46421;48.610;9.334;2022-08-18T11:34:27;0.20;;;0.20;;
60588;SDS011;46421;48.610;9.334;2022-08-18T11:37:00;0.20;;;0.20;;
60588;SDS011;46421;48.610;9.334;2022-08-18T11:39:29;0.28;;;0.28;;
60588;SDS011;46421;48.610;9.334;2022-08-18T11:41:55;0.20;;;0.20;;
60588;SDS011;46421;48.610;9.334;2022-08-18T11:44:21;0.13;;;0.13;;
60588;SDS011;46421;48.610;9.334;2022-08-18T11:46:49;0.20;;;0.20;;
60588;SDS011;46421;48.610;9.334;2022-08-18T11:49:29;0.13;;;0.13;;
60588;SDS011;46421;48.610;9.334;2022-08-18T11:51:57;0.20;;;0.20;;
60588;SDS011;46421;48.610;9.334;2022-08-18T11:54:22;0.20;;;0.20;;
60588;SDS011;46421;48.610;9.334;2022-08-18T12:00:33;0.20;;;0.20;;
60588;SDS011;46421;48.610;9.334;2022-08-18T12:03:07;0.20;;;0.20;;
60588;SDS011;46421;48.610;9.334;2022-08-18T12:05:46;0.10;;;0.10;;
60588;SDS011;46421;48.610;9.334;2022-08-18T12:08:29;0.20;;;0.20;;
60588;SDS011;46421;48.610;9.334;2022-08-18T12:11:01;0.15;;;0.15;;
60588;SDS011;46421;48.610;9.334;2022-08-18T12:13:29;0.10;;;0.10;;
60588;SDS011;46421;48.610;9.334;2022-08-18T12:16:07;0.10;;;0.10;;
60588;SDS011;46421;48.610;9.334;2022-08-18T12:18:34;0.10;;;0.10;;
60588;SDS011;46421;48.610;9.334;2022-08-18T12:20:59;0.00;;;0.00;;
60588;SDS011;46421;48.610;9.334;2022-08-18T12:23:25;0.00;;;0.00;;
60588;SDS011;46421;48.610;9.334;2022-08-18T12:25:50;0.10;;;0.10;;
60588;SDS011;46421;48.610;9.334;2022-08-18T12:28:15;0.00;;;0.00;;
60588;SDS011;46421;48.610;9.334;2022-08-18T12:30:41;0.00;;;0.00;;
60588;SDS011;46421;48.610;9.334;2022-08-18T12:33:06;0.00;;;0.00;;
60588;SDS011;46421;48.610;9.334;2022-08-18T12:35:31;0.00;;;0.00;;
60588;SDS011;46421;48.610;9.334;2022-08-18T12:37:58;0.00;;;0.00;;
60588;SDS011;46421;48.610;9.334;2022-08-18T12:40:23;0.10;;;0.10;;
60588;SDS011;46421;48.610;9.334;2022-08-18T12:42:48;0.03;;;0.03;;
60588;SDS011;46421;48.610;9.334;2022-08-18T12:45:14;0.10;;;0.10;;
60588;SDS011;46421;48.610;9.334;2022-08-18T12:47:39;0.10;;;0.10;;
60588;SDS011;46421;48.610;9.334;2022-08-18T12:50:05;0.00;;;0.00;;
60588;SDS011;46421;48.610;9.334;2022-08-18T12:52:31;0.10;;;0.10;;
60588;SDS011;46421;48.610;9.334;2022-08-18T12:54:57;0.00;;;0.00;;
60588;SDS011;46421;48.610;9.334;2022-08-18T12:57:23;0.00;;;0.00;;
60588;SDS011;46421;48.610;9.334;2022-08-18T12:59:50;0.00;;;0.00;;
60588;SDS011;46421;48.610;9.334;2022-08-18T13:02:16;0.03;;;0.03;;
60588;SDS011;46421;48.610;9.334;2022-08-18T13:04:42;0.10;;;0.10;;
60588;SDS011;46421;48.610;9.334;2022-08-18T13:07:09;0.00;;;0.00;;
60588;SDS011;46421;48.610;9.334;2022-08-18T13:09:36;0.10;;;0.10;;
60588;SDS011;46421;48.610;9.334;2022-08-18T13:12:02;0.00;;;0.00;;
60588;SDS011;46421;48.610;9.334;2022-08-18T13:14:27;0.00;;;0.00;;
60588;SDS011;46421;48.610;9.334;2022-08-18T13:16:52;0.00;;;0.00;;
60588;SDS011;46421;48.610;9.334;2022-08-18T13:19:18;0.00;;;0.00;;
60588;SDS011;46421;48.610;9.334;2022-08-18T13:21:43;0.00;;;0.00;;
60588;SDS011;46421;48.610;9.334;2022-08-18T13:24:09;0.03;;;0.03;;
60588;SDS011;46421;48.610;9.334;2022-08-18T13:26:36;0.10;;;0.10;;
60588;SDS011;46421;48.610;9.334;2022-08-18T13:29:04;0.10;;;0.10;;
60588;SDS011;46421;48.610;9.334;2022-08-18T13:31:30;0.10;;;0.10;;
60588;SDS011;46421;48.610;9.334;2022-08-18T13:33:56;0.00;;;0.00;;
60588;SDS011;46421;48.610;9.334;2022-08-18T13:36:22;0.00;;;0.00;;
60588;SDS011;46421;48.610;9.334;2022-08-18T13:38:50;0.03;;;0.03;;
60588;SDS011;46421;48.610;9.334;2022-08-18T13:41:16;0.00;;;0.00;;
60588;SDS011;46421;48.610;9.334;2022-08-18T13:43:42;0.00;;;0.00;;
60588;SDS011;46421;48.610;9.334;2022-08-18T13:46:10;0.05;;;0.05;;
60588;SDS011;46421;48.610;9.334;2022-08-18T13:48:37;0.10;;;0.10;;
60588;SDS011;46421;48.610;9.334;2022-08-18T13:51:03;0.10;;;0.10;;
60588;SDS011;46421;48.610;9.334;2022-08-18T13:53:30;0.00;;;0.00;;
60588;SDS011;46421;48.610;9.334;2022-08-18T13:55:56;0.10;;;0.10;;
60588;SDS011;46421;48.610;9.334;2022-08-18T13:58:21;0.00;;;0.00;;
60588;SDS011;46421;48.610;9.334;2022-08-18T14:00:48;0.00;;;0.00;;
60588;SDS011;46421;48.610;9.334;2022-08-18T14:03:14;0.00;;;0.00;;
60588;SDS011;46421;48.610;9.334;2022-08-18T14:05:40;0.10;;;0.10;;
60588;SDS011;46421;48.610;9.334;2022-08-18T14:08:05;0.10;;;0.10;;
60588;SDS011;46421;48.610;9.334;2022-08-18T14:10:30;0.00;;;0.00;;
60588;SDS011;46421;48.610;9.334;2022-08-18T14:12:57;0.00;;;0.00;;
60588;SDS011;46421;48.610;9.334;2022-08-18T14:15:27;0.08;;;0.08;;
60588;SDS011;46421;48.610;9.334;2022-08-18T14:17:53;0.10;;;0.10;;
60588;SDS011;46421;48.610;9.334;2022-08-18T14:20:18;0.00;;;0.00;;
60588;SDS011;46421;48.610;9.334;2022-08-18T14:22:44;0.00;;;0.00;;
60588;SDS011;46421;48.610;9.334;2022-08-18T14:25:09;0.00;;;0.00;;
60588;SDS011;46421;48.610;9.334;2022-08-18T14:27:35;0.10;;;0.10;;
60588;SDS011;46421;48.610;9.334;2022-08-18T14:30:07;0.00;;;0.00;;
60588;SDS011;46421;48.610;9.334;2022-08-18T14:32:35;0.00;;;0.00;;
60588;SDS011;46421;48.610;9.334;2022-08-18T14:35:01;0.00;;;0.00;;
60588;SDS011;46421;48.610;9.334;2022-08-18T14:37:28;0.10;;;0.10;;
60588;SDS011;46421;48.610;9.334;2022-08-18T14:39:54;0.00;;;0.00;;
60588;SDS011;46421;48.610;9.334;2022-08-18T14:42:20;0.00;;;0.00;;
60588;SDS011;46421;48.610;9.334;2022-08-18T14:44:46;0.00;;;0.00;;
60588;SDS011;46421;48.610;9.334;2022-08-18T14:47:12;0.10;;;0.10;;
60588;SDS011;46421;48.610;9.334;2022-08-18T14:49:37;0.00;;;0.00;;
60588;SDS011;46421;48.610;9.334;2022-08-18T14:52:02;0.00;;;0.00;;
60588;SDS011;46421;48.610;9.334;2022-08-18T14:54:28;0.00;;;0.00;;
60588;SDS011;46421;48.610;9.334;2022-08-18T14:56:54;0.00;;;0.00;;
60588;SDS011;46421;48.610;9.334;2022-08-18T14:59:20;0.00;;;0.00;;
60588;SDS011;46421;48.610;9.334;2022-08-18T15:01:45;0.00;;;0.00;;
60588;SDS011;46421;48.610;9.334;2022-08-18T15:04:10;0.00;;;0.00;;
60588;SDS011;46421;48.610;9.334;2022-08-18T15:06:36;0.00;;;0.00;;
60588;SDS011;46421;48.610;9.334;2022-08-18T15:09:01;0.10;;;0.10;;
60588;SDS011;46421;48.610;9.334;2022-08-18T15:11:27;0.00;;;0.00;;
60588;SDS011;46421;48.610;9.334;2022-08-18T15:13:52;0.00;;;0.00;;
60588;SDS011;46421;48.610;9.334;2022-08-18T15:16:18;0.00;;;0.00;;
60588;SDS011;46421;48.610;9.334;2022-08-18T15:18:43;0.10;;;0.10;;
60588;SDS011;46421;48.610;9.334;2022-08-18T15:21:10;0.00;;;0.00;;
60588;SDS011;46421;48.610;9.334;2022-08-18T15:23:36;0.00;;;0.00;;
60588;SDS011;46421;48.610;9.334;2022-08-18T15:26:01;0.00;;;0.00;;
60588;SDS011;46421;48.610;9.334;2022-08-18T15:28:27;0.10;;;0.10;;
60588;SDS011;46421;48.610;9.334;2022-08-18T15:30:52;0.00;;;0.00;;
60588;SDS011;46421;48.610;9.334;2022-08-18T15:33:18;0.00;;;0.00;;
60588;SDS011;46421;48.610;9.334;2022-08-18T15:35:44;0.00;;;0.00;;
60588;SDS011;46421;48.610;9.334;2022-08-18T15:38:11;0.03;;;0.03;;
60588;SDS011;46421;48.610;9.334;2022-08-18T15:40:36;0.00;;;0.00;;
60588;SDS011;46421;48.610;9.334;2022-08-18T15:43:04;0.10;;;0.10;;
60588;SDS011;46421;48.610;9.334;2022-08-18T15:45:34;0.10;;;0.05;;
60588;SDS011;46421;48.610;9.334;2022-08-18T15:48:04;0.10;;;0.10;;
60588;SDS011;46421;48.610;9.334;2022-08-18T15:50:30;0.10;;;0.10;;
60588;SDS011;46421;48.610;9.334;2022-08-18T15:52:56;0.00;;;0.00;;
60588;SDS011;46421;48.610;9.334;2022-08-18T15:55:25;0.10;;;0.10;;
60588;SDS011;46421;48.610;9.334;2022-08-18T15:57:52;0.00;;;0.00;;
60588;SDS011;46421;48.610;9.334;2022-08-18T16:00:18;0.00;;;0.00;;
60588;SDS011;46421;48.610;9.334;2022-08-18T16:02:48;0.15;;;0.05;;
60588;SDS011;46421;48.610;9.334;2022-08-18T16:05:19;0.00;;;0.00;;
60588;SDS011;46421;48.610;9.334;2022-08-18T16:07:44;0.00;;;0.00;;
60588;SDS011;46421;48.610;9.334;2022-08-18T16:10:09;0.10;;;0.10;;
60588;SDS011;46421;48.610;9.334;2022-08-18T16:12:35;0.08;;;0.08;;
60588;SDS011;46421;48.610;9.334;2022-08-18T16:15:00;0.10;;;0.10;;
60588;SDS011;46421;48.610;9.334;2022-08-18T16:17:26;0.10;;;0.10;;
60588;SDS011;46421;48.610;9.334;2022-08-18T16:19:51;0.00;;;0.00;;
60588;SDS011;46421;48.610;9.334;2022-08-18T16:22:16;0.00;;;0.00;;
60588;SDS011;46421;48.610;9.334;2022-08-18T16:24:41;0.00;;;0.00;;
60588;SDS011;46421;48.610;9.334;2022-08-18T16:27:07;0.00;;;0.00;;
60588;SDS011;46421;48.610;9.334;2022-08-18T16:29:32;0.00;;;0.00;;
60588;SDS011;46421;48.610;9.334;2022-08-18T16:31:57;0.10;;;0.10;;
60588;SDS011;46421;48.610;9.334;2022-08-18T16:34:23;0.05;;;0.05;;
60588;SDS011;46421;48.610;9.334;2022-08-18T16:36:48;0.00;;;0.00;;
60588;SDS011;46421;48.610;9.334;2022-08-18T16:39:13;0.00;;;0.00;;
60588;SDS011;46421;48.610;9.334;2022-08-18T16:41:39;0.10;;;0.10;;
60588;SDS011;46421;48.610;9.334;2022-08-18T16:44:04;0.10;;;0.10;;
60588;SDS011;46421;48.610;9.334;2022-08-18T16:46:29;0.10;;;0.10;;
60588;SDS011;46421;48.610;9.334;2022-08-18T16:48:55;0.00;;;0.00;;